Time;durP1;ratioP1;P1;durP2;ratioP2;P2;SDS_P1;SDS_P2;PMS_P1;PMS_P2;Temp;Humidity;BMP_temperature;BMP_pressure;BME280_temperature;BME280_humidity;BME280_pressure;Samples;Min_cycle;Max_cycle;Signal;HPM_P1;HPM_P2
2022/11/13 00:01:34;;;;;;;9.45;8.20;;;;;;;6.49;91.76;99114.16;5139222;23;20170;-89
2022/11/13 00:03:57;;;;;;;9.75;7.93;;;;;;;6.45;91.53;99116.03;5139128;23;20190;-89
2022/11/13 00:06:20;;;;;;;9.85;8.15;;;;;;;6.39;89.89;99116.25;5140336;23;20198;-89
2022/11/13 00:08:43;;;;;;;10.20;8.35;;;;;;;6.28;89.01;99112.34;5138233;23;20272;-89
2022/11/13 00:11:08;;;;;;;10.23;8.38;;;;;;;6.16;88.28;99105.84;5139636;23;20174;-89
2022/11/13 00:13:29;;;;;;;9.95;7.85;;;;;;;6.10;88.69;99103.47;5140822;22;20276;-89
2022/11/13 00:15:57;;;;;;;10.48;8.60;;;;;;;6.06;88.29;99100.19;5138450;23;20166;-89
2022/11/13 00:18:18;;;;;;;10.43;8.60;;;;;;;5.98;88.87;99089.25;5141140;23;20175;-89
2022/11/13 00:20:40;;;;;;;9.90;8.38;;;;;;;5.99;88.65;99083.19;5140611;23;20290;-88
2022/11/13 00:23:02;;;;;;;9.75;8.20;;;;;;;5.95;88.53;99086.78;5139170;23;20209;-89
2022/11/13 00:25:25;;;;;;;14.07;8.60;;;;;;;5.93;88.54;99078.22;5138829;23;20350;-89
2022/11/13 00:27:46;;;;;;;9.30;8.30;;;;;;;5.89;88.13;99084.38;5139028;23;20183;-89
2022/11/13 00:30:09;;;;;;;11.10;8.82;;;;;;;5.88;88.54;99072.34;5140913;22;20175;-89
2022/11/13 00:32:39;;;;;;;12.43;9.52;;;;;;;5.83;89.47;99069.94;5140327;23;20198;-89
2022/11/13 00:35:00;;;;;;;10.95;8.32;;;;;;;5.87;89.26;99068.06;5139536;23;20177;-89
2022/11/13 00:37:22;;;;;;;10.73;8.48;;;;;;;5.86;89.71;99061.19;5141511;22;20175;-89
2022/11/13 00:39:43;;;;;;;10.77;8.15;;;;;;;5.88;90.08;99057.66;5140134;23;20175;-89
2022/11/13 00:42:07;;;;;;;9.43;7.75;;;;;;;5.89;90.33;99055.91;5140221;23;20170;-88
2022/11/13 00:44:28;;;;;;;10.68;8.10;;;;;;;5.87;90.09;99050.78;5139265;23;20174;-89
2022/11/13 00:46:50;;;;;;;9.48;8.23;;;;;;;5.86;90.04;99056.03;5137551;23;20205;-88
2022/11/13 00:49:11;;;;;;;11.57;8.02;;;;;;;5.84;90.15;99047.47;5139778;23;20184;-89
2022/11/13 00:51:33;;;;;;;9.55;7.50;;;;;;;5.83;90.84;99048.38;5140196;23;20221;-89
2022/11/13 00:53:55;;;;;;;9.55;8.45;;;;;;;5.87;91.26;99039.59;5140737;23;20187;-89
2022/11/13 00:56:16;;;;;;;12.40;10.55;;;;;;;5.88;91.50;99033.50;5139363;23;20600;-89
2022/11/13 00:58:39;;;;;;;13.32;10.18;;;;;;;5.83;91.56;99036.28;5138269;23;20178;-89
2022/11/13 01:01:05;;;;;;;12.85;10.32;;;;;;;5.84;91.83;99037.13;5140259;23;20199;-89
2022/11/13 01:03:27;;;;;;;13.45;8.75;;;;;;;5.79;91.74;99033.88;5138649;23;20202;-89
2022/11/13 01:05:49;;;;;;;9.70;8.70;;;;;;;5.71;92.49;99041.84;5138822;23;20384;-89
2022/11/13 01:08:12;;;;;;;10.25;7.93;;;;;;;5.70;92.90;99050.50;5140864;23;20184;-89
2022/11/13 01:10:40;;;;;;;9.07;7.53;;;;;;;5.73;93.12;99029.69;5139421;23;20516;-89
2022/11/13 01:13:03;;;;;;;10.65;8.70;;;;;;;5.76;93.28;99039.13;5139393;23;20658;-89
2022/11/13 01:15:26;;;;;;;10.23;8.40;;;;;;;5.79;93.38;99033.88;5137592;23;20566;-89
2022/11/13 01:17:48;;;;;;;13.23;8.23;;;;;;;5.75;92.91;99030.50;5137885;23;20170;-89
2022/11/13 01:20:11;;;;;;;10.15;8.02;;;;;;;5.71;91.75;99030.63;5142477;23;20654;-89
2022/11/13 01:22:32;;;;;;;10.93;7.65;;;;;;;5.68;91.71;99030.75;5139575;23;20174;-89
2022/11/13 01:24:53;;;;;;;11.00;8.63;;;;;;;5.68;91.93;99026.44;5140878;23;20246;-89
2022/11/13 01:27:15;;;;;;;8.38;7.18;;;;;;;5.70;91.33;99026.38;5138803;23;20265;-89
2022/11/13 01:29:37;;;;;;;8.30;7.32;;;;;;;5.67;91.06;99022.13;5139644;23;20174;-89
2022/11/13 01:32:00;;;;;;;8.48;7.10;;;;;;;5.66;90.99;99011.84;5138571;23;20622;-89
2022/11/13 01:34:22;;;;;;;10.60;7.70;;;;;;;5.64;91.33;99019.66;5138097;23;20178;-89
2022/11/13 01:36:44;;;;;;;9.48;8.48;;;;;;;5.63;91.96;99011.94;5138586;23;20178;-89
2022/11/13 01:39:05;;;;;;;9.07;7.70;;;;;;;5.68;92.49;99020.38;5138574;23;20180;-89
2022/11/13 01:41:30;;;;;;;13.48;8.50;;;;;;;5.70;92.22;99018.63;5139416;23;20178;-88
2022/11/13 01:43:53;;;;;;;10.93;8.32;;;;;;;5.69;92.72;99003.97;5138862;23;20177;-89
2022/11/13 01:46:21;;;;;;;8.68;7.35;;;;;;;5.73;92.56;99009.00;5138856;22;20178;-89
2022/11/13 01:48:47;;;;;;;11.35;7.97;;;;;;;5.77;93.01;99002.00;5138536;23;20602;-89
2022/11/13 01:51:12;;;;;;;8.98;7.35;;;;;;;5.77;93.32;98997.69;5141096;22;20178;-89
2022/11/13 01:53:33;;;;;;;11.75;8.35;;;;;;;5.78;92.86;99001.09;5137634;23;20204;-89
2022/11/13 01:55:56;;;;;;;9.85;8.30;;;;;;;5.76;93.25;98985.63;5138606;23;20654;-89
2022/11/13 01:58:17;;;;;;;9.80;8.18;;;;;;;5.73;93.02;98982.28;5140948;23;20196;-89
2022/11/13 02:00:39;;;;;;;9.70;7.60;;;;;;;5.70;92.53;98987.56;5137352;23;20168;-88
2022/11/13 02:03:01;;;;;;;9.90;7.03;;;;;;;5.68;91.88;98991.94;5138106;23;20213;-89
2022/11/13 02:05:25;;;;;;;10.30;8.50;;;;;;;5.66;91.94;98983.38;5137128;23;20170;-89
2022/11/13 02:07:47;;;;;;;10.13;7.85;;;;;;;5.61;91.60;98974.94;5139293;22;20502;-89
2022/11/13 02:10:09;;;;;;;9.48;7.82;;;;;;;5.59;91.88;98976.72;5138081;23;20222;-89
2022/11/13 02:12:34;;;;;;;8.65;7.75;;;;;;;5.57;92.17;98975.94;5138361;23;20202;-89
2022/11/13 02:14:58;;;;;;;11.23;8.55;;;;;;;5.57;91.80;98975.09;5140127;22;20164;-89
2022/11/13 02:17:23;;;;;;;11.27;8.60;;;;;;;5.53;91.96;98974.34;5139208;23;20514;-89
2022/11/13 02:19:48;;;;;;;10.98;8.48;;;;;;;5.50;92.27;98953.75;5137457;23;20645;-89
2022/11/13 02:22:16;;;;;;;10.90;8.15;;;;;;;5.52;92.51;98961.47;5139490;23;20182;-89
2022/11/13 02:24:41;;;;;;;11.98;8.93;;;;;;;5.50;92.14;98947.75;5141362;22;20546;-89
2022/11/13 02:27:08;;;;;;;11.25;8.52;;;;;;;5.48;91.88;98946.97;5138362;23;20175;-89
2022/11/13 02:29:30;;;;;;;9.30;7.50;;;;;;;5.44;92.61;98943.66;5139006;23;20173;-89
2022/11/13 02:31:52;;;;;;;9.00;7.63;;;;;;;5.44;91.93;98943.66;5140468;22;20619;-89
2022/11/13 02:34:15;;;;;;;11.00;8.05;;;;;;;5.40;92.39;98931.72;5138912;23;20217;-89
2022/11/13 02:36:37;;;;;;;9.75;8.13;;;;;;;5.40;91.89;98939.47;5138422;23;20714;-89
2022/11/13 02:39:01;;;;;;;10.40;8.48;;;;;;;5.39;92.33;98940.34;5138438;23;20266;-89
2022/11/13 02:41:25;;;;;;;9.00;7.85;;;;;;;5.38;92.13;98933.53;5138098;23;20182;-89
2022/11/13 02:43:47;;;;;;;9.68;7.43;;;;;;;5.38;91.84;98930.06;5141096;22;20170;-89
2022/11/13 02:46:09;;;;;;;10.65;8.07;;;;;;;5.36;91.87;98930.13;5140411;23;20638;-89
2022/11/13 02:48:31;;;;;;;9.55;7.35;;;;;;;5.32;91.02;98931.16;5140323;22;20580;-89
2022/11/13 02:50:53;;;;;;;11.63;8.10;;;;;;;5.29;91.58;98928.66;5139815;22;20510;-88
2022/11/13 02:53:15;;;;;;;10.10;7.55;;;;;;;5.31;91.69;98934.63;5138211;23;20201;-89
2022/11/13 02:55:37;;;;;;;10.63;7.90;;;;;;;5.29;91.45;98928.66;5138744;23;20179;-89
2022/11/13 02:58:01;;;;;;;10.27;8.05;;;;;;;5.29;91.40;98939.00;5139166;23;20189;-88
2022/11/13 03:00:23;;;;;;;12.23;7.80;;;;;;;5.27;91.37;98929.59;5138065;23;20167;-89
2022/11/13 03:02:45;;;;;;;8.88;7.10;;;;;;;5.27;91.61;98927.84;5139438;23;20159;-89
2022/11/13 03:05:08;;;;;;;10.27;8.25;;;;;;;5.23;91.45;98921.13;5139306;23;20248;-89
2022/11/13 03:07:34;;;;;;;9.30;6.80;;;;;;;5.22;90.68;98928.91;5138274;23;20221;-89
2022/11/13 03:09:56;;;;;;;9.05;7.25;;;;;;;5.16;90.96;98922.19;5139442;22;20553;-89
2022/11/13 03:12:19;;;;;;;8.23;7.15;;;;;;;5.13;90.39;98917.13;5140525;22;20173;-89
2022/11/13 03:14:42;;;;;;;10.13;7.50;;;;;;;5.14;90.42;98923.13;5139480;23;20221;-89
2022/11/13 03:17:04;;;;;;;9.07;7.60;;;;;;;5.10;91.28;98911.25;5137894;23;20175;-89
2022/11/13 03:19:27;;;;;;;9.50;8.18;;;;;;;5.08;91.45;98912.16;5138161;23;20205;-89
2022/11/13 03:21:49;;;;;;;8.63;7.00;;;;;;;5.06;91.84;98913.97;5136340;23;20180;-89
2022/11/13 03:24:11;;;;;;;8.60;7.45;;;;;;;5.06;91.49;98913.97;5137461;23;20174;-89
2022/11/13 03:26:33;;;;;;;8.73;6.93;;;;;;;5.02;91.29;98908.06;5138794;23;20167;-89
2022/11/13 03:28:56;;;;;;;8.35;7.10;;;;;;;5.03;90.89;98907.16;5139576;23;20166;-89
2022/11/13 03:31:22;;;;;;;8.85;7.40;;;;;;;5.01;91.26;98905.53;5139236;23;20249;-89
2022/11/13 03:33:44;;;;;;;9.80;8.00;;;;;;;5.02;90.87;98908.06;5138398;23;20198;-89
2022/11/13 03:36:07;;;;;;;10.85;7.50;;;;;;;4.99;90.96;98907.31;5138056;23;20217;-90
2022/11/13 03:38:29;;;;;;;9.00;7.07;;;;;;;4.98;91.65;98900.47;5137089;23;20182;-89
2022/11/13 03:40:52;;;;;;;8.63;7.20;;;;;;;4.96;90.98;98905.69;5138280;23;20170;-89
2022/11/13 03:43:15;;;;;;;14.10;7.47;;;;;;;4.96;91.40;98904.81;5138474;23;20170;-89
2022/11/13 03:45:37;;;;;;;8.45;7.55;;;;;;;4.91;90.54;98907.56;5139811;22;20170;-89
2022/11/13 03:48:00;;;;;;;8.40;6.93;;;;;;;4.86;89.15;98901.72;5139484;23;20617;-89
2022/11/13 03:50:22;;;;;;;8.43;7.10;;;;;;;4.78;89.24;98892.50;5138084;23;20178;-89
2022/11/13 03:52:44;;;;;;;7.85;6.63;;;;;;;4.75;88.84;98892.59;5137466;23;20174;-89
2022/11/13 03:55:07;;;;;;;7.07;6.30;;;;;;;4.71;88.35;98893.63;5139960;22;20578;-89
2022/11/13 03:57:31;;;;;;;9.35;6.82;;;;;;;4.68;88.94;98895.47;5137986;23;20167;-88
2022/11/13 03:59:52;;;;;;;8.25;6.63;;;;;;;4.64;88.80;98893.88;5137295;23;20173;-89
2022/11/13 04:02:14;;;;;;;8.73;7.03;;;;;;;4.61;88.52;98897.38;5138056;23;20189;-89
2022/11/13 04:04:36;;;;;;;9.18;6.85;;;;;;;4.53;89.02;98895.97;5138932;23;20233;-89
2022/11/13 04:06:58;;;;;;;8.32;6.93;;;;;;;4.47;87.61;98894.41;5141364;22;20843;-89
2022/11/13 04:09:20;;;;;;;8.68;7.60;;;;;;;4.42;88.45;98891.13;5140876;23;20174;-91
2022/11/13 04:11:42;;;;;;;9.02;7.35;;;;;;;4.40;89.07;98890.31;5139342;22;20174;-90
2022/11/13 04:14:04;;;;;;;9.48;7.00;;;;;;;4.35;89.66;98889.63;5139088;23;20832;-88
2022/11/13 04:16:25;;;;;;;9.23;7.75;;;;;;;4.33;89.24;98885.38;5138728;23;20174;-89
2022/11/13 04:18:47;;;;;;;9.55;8.32;;;;;;;4.28;89.13;98875.22;5140046;23;20572;-89
2022/11/13 04:21:10;;;;;;;10.57;7.70;;;;;;;4.29;88.30;98876.06;5140383;23;20178;-89
2022/11/13 04:23:31;;;;;;;10.23;8.30;;;;;;;4.30;89.04;98872.56;5140564;22;20546;-89
2022/11/13 04:25:53;;;;;;;9.70;8.15;;;;;;;4.30;89.91;98868.28;5142370;23;20170;-89
2022/11/13 04:28:15;;;;;;;12.25;7.78;;;;;;;4.31;89.04;98863.94;5141273;22;20184;-89
2022/11/13 04:30:37;;;;;;;9.55;8.55;;;;;;;4.29;88.93;98856.25;5140123;23;20198;-89
2022/11/13 04:32:58;;;;;;;10.05;8.07;;;;;;;4.31;89.67;98859.63;5139409;23;20188;-89
2022/11/13 04:35:20;;;;;;;9.80;8.15;;;;;;;4.32;89.07;98856.16;5139832;23;20194;-89
2022/11/13 04:37:43;;;;;;;9.98;8.05;;;;;;;4.33;90.21;98851.81;5139408;23;20167;-89
2022/11/13 04:40:05;;;;;;;11.23;8.15;;;;;;;4.31;90.39;98857.03;5139708;23;20260;-89
2022/11/13 04:45:07;;;;;;;9.10;7.20;;;;;;;4.23;89.51;98851.28;5141206;23;20166;-89
2022/11/13 04:47:28;;;;;;;9.32;7.45;;;;;;;4.16;89.56;98848.94;5140916;22;20305;-89
2022/11/13 04:49:50;;;;;;;8.70;7.80;;;;;;;4.12;89.21;98839.63;5139895;23;20170;-89
2022/11/13 04:52:12;;;;;;;9.45;7.75;;;;;;;4.07;88.82;98840.66;5140365;23;20630;-89
2022/11/13 04:54:35;;;;;;;8.35;7.35;;;;;;;4.05;88.89;98834.69;5139182;23;20587;-89
2022/11/13 04:56:56;;;;;;;9.15;8.25;;;;;;;4.01;89.02;98833.94;5139411;23;20163;-89
2022/11/13 04:59:18;;;;;;;10.07;7.82;;;;;;;3.97;89.52;98832.34;5139638;23;20178;-88
2022/11/13 05:01:40;;;;;;;8.65;6.88;;;;;;;3.97;88.78;98828.91;5138610;23;20174;-89
2022/11/13 05:04:02;;;;;;;12.23;8.90;;;;;;;3.99;89.22;98835.72;5141259;23;20190;-89
2022/11/13 05:06:24;;;;;;;9.07;7.60;;;;;;;3.97;89.20;98834.06;5140370;23;20182;-89
2022/11/13 05:08:46;;;;;;;9.85;7.30;;;;;;;3.96;89.34;98829.81;5138907;23;20190;-89
2022/11/13 05:11:09;;;;;;;12.50;9.18;;;;;;;3.97;88.87;98834.06;5138309;23;20371;-89
2022/11/13 05:13:32;;;;;;;12.55;10.07;;;;;;;3.93;89.06;98825.59;5138724;23;20186;-89
2022/11/13 05:16:00;;;;;;;9.93;8.93;;;;;;;3.87;89.55;98830.09;5139702;23;20176;-89
2022/11/13 05:18:24;;;;;;;10.27;7.85;;;;;;;3.87;89.63;98824.94;5139566;23;20491;-89
2022/11/13 05:20:47;;;;;;;13.45;8.32;;;;;;;3.82;89.11;98814.75;5138636;23;20190;-89
2022/11/13 05:23:08;;;;;;;11.50;7.53;;;;;;;3.80;88.54;98824.28;5139818;23;20163;-89
2022/11/13 05:25:31;;;;;;;10.70;8.15;;;;;;;3.76;88.32;98814.94;5140659;23;20166;-89
2022/11/13 05:27:54;;;;;;;11.63;8.88;;;;;;;3.72;87.69;98815.91;5141029;22;20175;-89
2022/11/13 05:30:16;;;;;;;10.98;7.65;;;;;;;3.71;88.74;98825.44;5139368;23;20209;-89
2022/11/13 05:32:38;;;;;;;15.93;7.60;;;;;;;3.68;87.99;98813.47;5141681;23;20174;-89
2022/11/13 05:35:00;;;;;;;8.95;7.57;;;;;;;3.66;88.45;98815.25;5138701;23;20190;-89
2022/11/13 05:37:21;;;;;;;12.82;8.73;;;;;;;3.60;87.95;98801.72;5140523;23;20184;-89
2022/11/13 05:39:44;;;;;;;9.98;8.80;;;;;;;3.59;89.45;98798.28;5138804;23;20627;-88
2022/11/13 05:42:05;;;;;;;12.20;7.93;;;;;;;3.61;89.79;98801.66;5138140;23;20178;-89
2022/11/13 05:44:28;;;;;;;12.50;9.52;;;;;;;3.60;89.40;98791.41;5139362;23;20305;-89
2022/11/13 05:46:49;;;;;;;12.13;8.63;;;;;;;3.60;88.85;98794.81;5138807;23;20641;-89
2022/11/13 05:49:11;;;;;;;8.75;7.82;;;;;;;3.56;89.10;98794.94;5140495;22;20174;-89
2022/11/13 05:51:34;;;;;;;9.50;8.43;;;;;;;3.54;89.25;98795.00;5137702;23;20170;-89
2022/11/13 05:53:56;;;;;;;9.88;8.77;;;;;;;3.52;89.54;98798.50;5139347;22;20178;-88
2022/11/13 05:56:19;;;;;;;10.57;9.25;;;;;;;3.50;89.09;98793.41;5139368;23;20182;-89
2022/11/13 05:58:41;;;;;;;12.05;9.93;;;;;;;3.54;89.03;98800.16;5138519;23;20607;-89
2022/11/13 06:01:10;;;;;;;10.35;9.05;;;;;;;3.58;89.57;98811.22;5138715;23;20225;-89
2022/11/13 06:03:32;;;;;;;11.27;9.80;;;;;;;3.59;89.26;98818.91;5140438;22;20221;-89
2022/11/13 06:05:53;;;;;;;9.93;8.77;;;;;;;3.59;90.15;98818.91;5141282;23;20166;-89
2022/11/13 06:08:17;;;;;;;10.55;8.93;;;;;;;3.55;88.48;98817.31;5137603;23;20554;-89
2022/11/13 06:10:38;;;;;;;12.10;9.07;;;;;;;3.52;87.97;98807.09;5138499;23;20216;-89
2022/11/13 06:13:00;;;;;;;14.25;8.50;;;;;;;3.45;87.56;98810.72;5139478;22;20170;-88
2022/11/13 06:15:21;;;;;;;10.35;7.85;;;;;;;3.38;88.62;98814.38;5138806;23;20225;-89
2022/11/13 06:17:46;;;;;;;9.30;8.15;;;;;;;3.36;88.25;98811.00;5138196;23;20627;-89
2022/11/13 06:20:09;;;;;;;18.88;9.55;;;;;;;3.36;87.80;98813.56;5138875;23;20196;-89
2022/11/13 06:22:30;;;;;;;27.83;11.07;;;;;;;3.32;88.17;98811.13;5138948;23;20229;-89
2022/11/13 06:24:52;;;;;;;10.68;8.95;;;;;;;3.31;89.46;98812.03;5140284;23;20224;-89
2022/11/13 06:27:13;;;;;;;13.40;8.77;;;;;;;3.33;88.58;98807.66;5139036;23;20177;-89
2022/11/13 06:29:35;;;;;;;11.45;9.00;;;;;;;3.34;89.23;98805.03;5141157;23;20174;-89
2022/11/13 06:31:57;;;;;;;13.38;9.45;;;;;;;3.35;88.36;98806.75;5141158;22;20662;-89
2022/11/13 06:34:20;;;;;;;15.65;9.73;;;;;;;3.37;88.75;98802.38;5139159;23;20649;-88
2022/11/13 06:36:42;;;;;;;19.77;9.25;;;;;;;3.37;89.03;98796.38;5139411;23;20628;-89
2022/11/13 06:39:06;;;;;;;25.77;8.80;;;;;;;3.39;89.68;98800.59;5139744;23;20174;-88
2022/11/13 06:41:30;;;;;;;15.60;9.15;;;;;;;3.42;89.16;98803.09;5138082;23;20828;-89
2022/11/13 06:43:51;;;;;;;22.67;10.90;;;;;;;3.45;89.46;98807.31;5138422;23;20170;-89
2022/11/13 06:46:14;;;;;;;44.50;10.50;;;;;;;3.45;89.52;98805.56;5140471;23;20189;-89
2022/11/13 06:48:36;;;;;;;55.03;11.55;;;;;;;3.47;90.42;98803.81;5140908;22;20201;-89
2022/11/13 06:51:02;;;;;;;47.03;11.20;;;;;;;3.50;90.47;98802.84;5139136;23;20658;-88
2022/11/13 06:53:24;;;;;;;59.20;12.27;;;;;;;3.47;89.75;98795.22;5140255;22;20845;-88
2022/11/13 06:55:48;;;;;;;32.25;10.95;;;;;;;3.48;90.72;98800.31;5139631;23;20670;-89
2022/11/13 06:58:10;;;;;;;53.05;12.90;;;;;;;3.50;90.61;98802.84;5138559;23;20253;-89
2022/11/13 07:00:32;;;;;;;39.53;10.77;;;;;;;3.50;90.83;98803.72;5138804;23;20166;-89
2022/11/13 07:02:58;;;;;;;28.38;9.88;;;;;;;3.51;90.50;98799.41;5140677;23;20213;-89
2022/11/13 07:05:20;;;;;;;33.25;11.80;;;;;;;3.53;90.68;98793.28;5141554;23;20175;-89
2022/11/13 07:07:43;;;;;;;42.40;11.27;;;;;;;3.55;90.49;98788.09;5139965;23;20879;-89
2022/11/13 07:10:05;;;;;;;26.85;9.35;;;;;;;3.57;90.70;98781.19;5141196;23;20162;-90
2022/11/13 07:12:28;;;;;;;16.83;9.30;;;;;;;3.61;89.91;98786.19;5141445;23;20174;-89
2022/11/13 07:14:50;;;;;;;24.75;9.82;;;;;;;3.62;90.07;98781.88;5141013;23;20193;-89
2022/11/13 07:17:13;;;;;;;36.58;10.13;;;;;;;3.60;90.28;98776.75;5140298;23;20182;-89
2022/11/13 07:19:35;;;;;;;38.47;9.23;;;;;;;3.59;89.82;98774.22;5138896;23;20173;-89
2022/11/13 07:21:56;;;;;;;23.63;9.32;;;;;;;3.56;89.81;98767.41;5139568;23;20202;-89
2022/11/13 07:24:19;;;;;;;17.38;9.02;;;;;;;3.56;89.66;98774.31;5139153;23;20174;-87
2022/11/13 07:26:41;;;;;;;8.70;7.63;;;;;;;3.59;90.18;98761.34;5140107;23;20173;-88
2022/11/13 07:29:03;;;;;;;48.13;11.30;;;;;;;3.71;90.23;98756.66;5137201;23;20206;-87
2022/11/13 07:31:24;;;;;;;11.88;8.93;;;;;;;3.71;89.15;98756.66;5137395;23;20286;-88
2022/11/13 07:33:47;;;;;;;10.85;9.40;;;;;;;3.72;89.60;98748.03;5137665;23;20193;-86
2022/11/13 07:36:10;;;;;;;13.32;10.38;;;;;;;3.71;89.73;98750.66;5137752;23;20219;-86
2022/11/13 07:38:31;;;;;;;15.40;10.48;;;;;;;3.70;89.56;98747.25;5135772;23;20166;-86
2022/11/13 07:40:55;;;;;;;14.80;8.73;;;;;;;3.74;89.59;98741.94;5135913;23;20170;-86
2022/11/13 07:43:16;;;;;;;15.85;9.73;;;;;;;3.75;89.31;98738.47;5137239;23;20770;-86
2022/11/13 07:45:38;;;;;;;22.17;10.63;;;;;;;3.80;90.29;98735.72;5137581;23;20198;-86
2022/11/13 07:48:00;;;;;;;11.35;8.40;;;;;;;3.92;89.26;98743.91;5138154;23;20181;-86
2022/11/13 07:50:22;;;;;;;38.70;10.70;;;;;;;4.00;89.70;98743.69;5138004;23;20174;-86
2022/11/13 07:52:44;;;;;;;21.77;8.15;;;;;;;4.10;90.46;98737.34;5141202;23;20557;-87
2022/11/13 07:55:07;;;;;;;13.32;7.60;;;;;;;4.29;90.04;98739.25;5139819;23;20207;-88
2022/11/13 07:57:30;;;;;;;10.02;8.23;;;;;;;4.43;90.37;98745.63;5139845;23;20193;-88
2022/11/13 07:59:51;;;;;;;14.00;8.90;;;;;;;4.61;90.84;98744.19;5139155;23;20181;-88
2022/11/13 08:02:15;;;;;;;10.45;8.55;;;;;;;4.79;90.49;98744.38;5138948;23;20182;-88
2022/11/13 08:04:36;;;;;;;11.35;9.13;;;;;;;5.05;90.56;98741.69;5139530;23;20190;-88
2022/11/13 08:06:58;;;;;;;8.98;8.10;;;;;;;5.24;89.89;98746.16;5138938;23;20181;-86
2022/11/13 08:09:21;;;;;;;8.77;7.85;;;;;;;5.46;88.08;98754.78;5139737;23;20177;-86
2022/11/13 08:11:43;;;;;;;9.18;8.27;;;;;;;5.51;87.88;98743.38;5139006;23;20184;-86
2022/11/13 08:14:06;;;;;;;9.30;8.40;;;;;;;5.54;87.79;98737.25;5138745;23;20174;-86
2022/11/13 08:16:28;;;;;;;11.57;8.70;;;;;;;5.53;87.43;98736.38;5138357;23;20199;-86
2022/11/13 08:18:50;;;;;;;9.85;8.85;;;;;;;5.56;87.42;98728.50;5138821;23;20919;-87
2022/11/13 08:21:12;;;;;;;10.45;9.40;;;;;;;5.57;86.69;98737.97;5137304;23;20170;-89
2022/11/13 08:23:35;;;;;;;9.43;8.43;;;;;;;5.52;86.15;98728.69;5142088;22;20182;-88
2022/11/13 08:25:57;;;;;;;11.80;9.57;;;;;;;5.46;86.94;98723.75;5141471;23;20178;-86
2022/11/13 08:28:19;;;;;;;11.70;10.38;;;;;;;5.35;86.31;98718.16;5140888;23;20270;-86
2022/11/13 08:30:44;;;;;;;15.20;11.80;;;;;;;5.33;87.99;98715.63;5136731;23;20623;-87
2022/11/13 08:33:06;;;;;;;14.68;11.43;;;;;;;5.32;88.38;98705.34;5139934;23;20544;-86
2022/11/13 08:35:28;;;;;;;12.90;11.20;;;;;;;5.41;88.24;98704.97;5138309;23;20732;-86
2022/11/13 08:37:50;;;;;;;18.40;11.85;;;;;;;5.49;88.34;98703.81;5139002;23;20178;-86
2022/11/13 08:40:12;;;;;;;21.83;12.50;;;;;;;5.49;89.17;98702.94;5139996;23;20171;-87
2022/11/13 08:42:34;;;;;;;18.77;12.45;;;;;;;5.52;88.85;98698.50;5139434;23;20185;-87
2022/11/13 08:44:55;;;;;;;18.75;13.85;;;;;;;5.52;88.84;98692.47;5140018;22;20185;-87
2022/11/13 08:47:18;;;;;;;15.43;12.63;;;;;;;5.57;89.88;98693.16;5140440;23;20559;-86
2022/11/13 08:49:41;;;;;;;16.25;12.80;;;;;;;5.64;89.94;98704.03;5139220;23;20170;-87
2022/11/13 08:52:03;;;;;;;20.05;11.90;;;;;;;5.78;90.41;98703.53;5138472;23;20168;-87
2022/11/13 08:54:25;;;;;;;16.17;12.48;;;;;;;5.85;90.23;98712.72;5139584;22;20186;-87
2022/11/13 08:56:47;;;;;;;46.90;15.23;;;;;;;5.87;89.18;98700.59;5139731;22;20307;-87
2022/11/13 08:59:16;;;;;;;19.35;13.18;;;;;;;5.83;88.85;98697.28;5137859;23;20190;-88
2022/11/13 09:01:38;;;;;;;19.95;12.90;;;;;;;5.86;89.66;98702.31;5137430;23;20178;-88
2022/11/13 09:04:01;;;;;;;24.23;12.98;;;;;;;5.94;89.53;98702.00;5138885;23;20276;-88
2022/11/13 09:06:23;;;;;;;16.05;10.73;;;;;;;5.94;90.08;98700.28;5136288;22;20177;-88
2022/11/13 09:08:45;;;;;;;22.25;13.20;;;;;;;5.99;89.85;98705.28;5136660;23;20197;-88
2022/11/13 09:11:06;;;;;;;19.63;13.40;;;;;;;6.02;89.65;98700.81;5138876;23;20170;-88
2022/11/13 09:13:28;;;;;;;26.98;13.90;;;;;;;6.03;89.54;98696.44;5136746;23;20166;-88
2022/11/13 09:15:50;;;;;;;15.02;11.95;;;;;;;6.05;89.98;98705.84;5137525;23;20232;-88
2022/11/13 09:18:11;;;;;;;16.13;12.75;;;;;;;6.13;90.42;98696.88;5136534;23;20190;-88
2022/11/13 09:20:35;;;;;;;20.98;12.20;;;;;;;6.23;90.28;98708.53;5136762;23;20526;-89
2022/11/13 09:22:58;;;;;;;14.15;11.98;;;;;;;6.31;89.86;98711.63;5137410;23;20169;-87
2022/11/13 09:25:20;;;;;;;14.15;11.75;;;;;;;6.34;89.64;98727.03;5135187;23;20179;-88
2022/11/13 09:27:42;;;;;;;14.90;11.98;;;;;;;6.38;89.64;98718.25;5138636;23;20197;-88
2022/11/13 09:30:04;;;;;;;15.38;11.88;;;;;;;6.42;89.30;98721.53;5136984;23;20196;-88
2022/11/13 09:32:26;;;;;;;17.25;12.35;;;;;;;6.44;89.50;98714.56;5140308;22;20166;-87
2022/11/13 09:34:48;;;;;;;13.02;10.80;;;;;;;6.43;89.07;98705.09;5138199;23;20687;-88
2022/11/13 09:37:11;;;;;;;14.40;11.02;;;;;;;6.40;89.44;98703.47;5140244;22;20279;-87
2022/11/13 09:39:33;;;;;;;13.35;11.95;;;;;;;6.48;88.75;98714.38;5138458;23;20179;-87
2022/11/13 09:41:58;;;;;;;11.75;10.55;;;;;;;6.56;89.05;98720.06;5139072;23;20258;-87
2022/11/13 09:44:24;;;;;;;13.00;11.05;;;;;;;6.63;89.45;98721.47;5139889;23;20263;-87
2022/11/13 09:46:49;;;;;;;11.50;10.30;;;;;;;6.65;89.13;98719.69;5140912;22;20180;-87
2022/11/13 09:49:16;;;;;;;12.23;10.93;;;;;;;6.69;89.20;98711.72;5136788;23;20178;-87
2022/11/13 09:51:38;;;;;;;12.75;10.82;;;;;;;6.75;90.17;98710.59;5137636;23;20262;-87
2022/11/13 09:54:05;;;;;;;11.77;10.57;;;;;;;6.83;90.42;98705.94;5138315;23;20315;-87
2022/11/13 09:56:29;;;;;;;12.10;10.70;;;;;;;6.88;89.14;98706.56;5138466;23;20289;-87
2022/11/13 09:58:58;;;;;;;13.48;11.45;;;;;;;6.95;90.44;98706.22;5139848;23;20191;-87
2022/11/13 10:01:26;;;;;;;12.70;10.80;;;;;;;7.04;90.23;98708.41;5139635;22;20178;-87
2022/11/13 10:03:53;;;;;;;12.95;11.10;;;;;;;7.14;91.31;98696.69;5138826;23;20843;-87
2022/11/13 10:06:27;;;;;;;13.38;11.90;;;;;;;7.15;91.18;98706.16;5137448;23;20611;-86
2022/11/13 10:08:56;;;;;;;15.30;12.02;;;;;;;7.19;91.26;98698.19;5138647;23;20186;-87
2022/11/13 10:11:26;;;;;;;16.38;12.98;;;;;;;7.26;90.19;98694.41;5138196;23;20253;-87
2022/11/13 10:13:50;;;;;;;14.40;11.85;;;;;;;7.29;91.57;98694.28;5138087;23;20171;-86
2022/11/13 10:16:20;;;;;;;16.00;11.93;;;;;;;7.40;91.10;98698.97;5139490;23;20652;-87
2022/11/13 10:18:43;;;;;;;13.43;12.07;;;;;;;7.47;89.89;98690.81;5138642;23;20945;-86
2022/11/13 10:21:12;;;;;;;15.40;12.82;;;;;;;7.48;89.75;98687.31;5138674;23;20180;-86
2022/11/13 10:23:37;;;;;;;12.75;11.45;;;;;;;7.52;91.09;98686.25;5139829;23;20196;-87
2022/11/13 10:26:04;;;;;;;13.70;12.20;;;;;;;7.63;91.84;98679.63;5137664;23;20209;-86
2022/11/13 10:28:28;;;;;;;13.90;12.00;;;;;;;7.72;93.40;98681.81;5138827;23;20173;-87
2022/11/13 10:31:10;;;;;;;13.73;12.32;;;;;;;7.80;92.66;98676.25;5135873;23;20181;-87
2022/11/13 10:33:32;;;;;;;12.85;11.55;;;;;;;7.87;91.76;98672.44;5137996;23;20188;-87
2022/11/13 10:35:57;;;;;;;11.60;10.40;;;;;;;7.85;90.64;98669.94;5138086;23;20166;-87
2022/11/13 10:38:25;;;;;;;11.07;9.77;;;;;;;7.86;89.90;98663.78;5139519;22;20201;-87
2022/11/13 10:40:48;;;;;;;11.95;10.85;;;;;;;8.07;91.62;98661.03;5138522;23;20178;-87
2022/11/13 10:43:14;;;;;;;11.90;10.68;;;;;;;8.20;91.95;98641.31;5138820;23;20238;-87
2022/11/13 10:45:38;;;;;;;11.63;10.35;;;;;;;8.36;92.14;98652.63;5138827;23;20172;-87
2022/11/13 10:48:00;;;;;;;14.45;12.57;;;;;;;8.44;90.93;98650.47;5138270;23;20210;-87
2022/11/13 10:50:27;;;;;;;13.18;11.55;;;;;;;8.42;90.92;98651.47;5138873;23;20846;-88
2022/11/13 10:52:50;;;;;;;15.50;12.98;;;;;;;8.46;91.54;98649.50;5138985;23;20177;-87
2022/11/13 10:55:16;;;;;;;19.95;16.25;;;;;;;8.44;92.02;98646.13;5138124;23;20178;-87
2022/11/13 10:57:38;;;;;;;14.73;13.07;;;;;;;8.46;91.35;98636.50;5137940;23;21159;-87
2022/11/13 11:00:00;;;;;;;13.57;12.20;;;;;;;8.50;90.67;98626.78;5138322;23;20280;-88
2022/11/13 11:02:24;;;;;;;11.88;10.57;;;;;;;8.44;91.52;98629.69;5138248;23;20321;-87
2022/11/13 11:04:47;;;;;;;13.55;11.52;;;;;;;8.41;92.09;98631.63;5138049;23;20202;-86
2022/11/13 11:07:14;;;;;;;13.07;11.77;;;;;;;8.50;92.30;98629.38;5139515;22;20174;-87
2022/11/13 11:09:43;;;;;;;13.45;12.07;;;;;;;8.54;91.40;98618.75;5138223;23;20913;-87
2022/11/13 11:12:17;;;;;;;13.80;12.40;;;;;;;8.66;91.53;98617.25;5137881;23;20169;-87
2022/11/13 11:14:43;;;;;;;14.57;12.52;;;;;;;8.70;92.00;98616.19;5136812;22;20602;-88
2022/11/13 11:17:06;;;;;;;14.13;12.63;;;;;;;8.73;91.41;98608.22;5135769;23;20181;-87